createdAt,value
2022-10-22T00:01:00.067Z,99692.63
2022-10-22T00:03:27.942Z,99684.28
2022-10-22T00:05:55.722Z,99684.34
2022-10-22T00:08:24.918Z,99688.50
2022-10-22T00:10:52.806Z,99695.19
2022-10-22T00:13:21.437Z,99695.13
2022-10-22T00:15:49.847Z,99688.34
2022-10-22T00:18:17.623Z,99693.25
2022-10-22T00:20:45.427Z,99677.22
2022-10-22T00:23:13.207Z,99687.41
2022-10-22T00:25:42.756Z,99683.25
2022-10-22T00:28:11.482Z,99684.91
2022-10-22T00:30:39.247Z,99676.38
2022-10-22T00:33:07.090Z,99695.63
2022-10-22T00:35:34.853Z,99699.50
2022-10-22T00:38:02.639Z,99711.84
2022-10-22T00:40:30.766Z,99706.09
2022-10-22T00:42:59.940Z,99709.31
2022-10-22T00:45:28.662Z,99702.50
2022-10-22T00:48:00.441Z,99707.34
2022-10-22T00:50:34.024Z,99693.53
2022-10-22T00:53:03.489Z,99687.84
2022-10-22T00:55:33.664Z,99669.41
2022-10-22T00:58:04.834Z,99646.16
2022-10-22T01:00:33.056Z,99665.22
2022-10-22T01:03:01.291Z,99658.56
2022-10-22T01:05:30.698Z,99646.75
2022-10-22T01:07:58.739Z,99633.94
2022-10-22T01:10:39.363Z,99662.00
2022-10-22T01:13:18.778Z,99673.97
2022-10-22T01:15:54.076Z,99670.06
2022-10-22T01:18:29.413Z,99673.50
2022-10-22T01:21:09.573Z,99682.53
2022-10-22T01:24:00.614Z,99669.50
2022-10-22T01:26:42.032Z,99683.09
2022-10-22T01:29:14.367Z,99658.66
2022-10-22T01:31:46.595Z,99661.03
2022-10-22T01:34:17.512Z,99666.69
2022-10-22T01:36:46.713Z,99664.22
2022-10-22T01:39:16.397Z,99658.56
2022-10-22T01:41:45.302Z,99668.69
2022-10-22T01:44:26.362Z,99655.53
2022-10-22T01:47:04.214Z,99631.03
2022-10-22T01:49:43.712Z,99643.00
2022-10-22T01:52:23.547Z,99644.78
2022-10-22T01:54:56.579Z,99640.69
2022-10-22T01:57:34.030Z,99640.72
2022-10-22T02:00:08.870Z,99635.69
2022-10-22T02:02:44.946Z,99645.75
2022-10-22T02:05:17.718Z,99652.47
2022-10-22T02:07:48.917Z,99649.97
2022-10-22T02:10:18.912Z,99652.16
2022-10-22T02:12:51.393Z,99661.97
2022-10-22T02:15:22.863Z,99663.66
2022-10-22T02:17:52.213Z,99637.44
2022-10-22T02:20:24.182Z,99666.91
2022-10-22T02:22:52.109Z,99646.03
2022-10-22T02:25:22.569Z,99645.09
2022-10-22T02:28:02.137Z,99644.25
2022-10-22T02:30:34.756Z,99657.63
2022-10-22T02:33:07.085Z,99656.81
2022-10-22T02:35:36.374Z,99657.63
2022-10-22T02:38:04.749Z,99663.44
2022-10-22T02:40:33.350Z,99657.38
2022-10-22T02:43:01.305Z,99653.13
2022-10-22T02:45:29.799Z,99653.22
2022-10-22T02:47:59.414Z,99642.44
2022-10-22T02:50:27.319Z,99630.69
2022-10-22T02:52:55.097Z,99624.00
2022-10-22T02:55:23.103Z,99617.41
2022-10-22T02:57:50.863Z,99608.22
2022-10-22T03:00:19.183Z,99614.09
2022-10-22T03:02:47.020Z,99616.66
2022-10-22T03:05:16.521Z,99614.97
2022-10-22T03:07:44.276Z,99610.53
2022-10-22T03:10:12.048Z,99610.34
2022-10-22T03:12:39.800Z,99615.19
2022-10-22T03:15:08.223Z,99625.09
2022-10-22T03:17:36.958Z,99613.06
2022-10-22T03:20:05.144Z,99607.88
2022-10-22T03:22:36.297Z,99610.22
2022-10-22T03:25:08.794Z,99606.88
2022-10-22T03:27:38.683Z,99599.38
2022-10-22T03:30:08.428Z,99611.06
2022-10-22T03:32:36.305Z,99624.25
2022-10-22T03:35:05.499Z,99607.31
2022-10-22T03:37:35.898Z,99617.63
2022-10-22T03:40:05.835Z,99619.03
2022-10-22T03:42:33.652Z,99616.06
2022-10-22T03:45:02.491Z,99614.16
2022-10-22T03:47:30.238Z,99613.97
2022-10-22T03:49:58.057Z,99627.28
2022-10-22T03:52:25.883Z,99613.13
2022-10-22T03:54:55.019Z,99625.53
2022-10-22T03:57:22.811Z,99623.00
2022-10-22T03:59:51.435Z,99633.72
2022-10-22T04:02:19.248Z,99618.44
2022-10-22T04:04:46.992Z,99623.34
2022-10-22T04:07:14.802Z,99620.84
2022-10-22T04:09:42.619Z,99629.13
2022-10-22T04:12:11.867Z,99616.44
2022-10-22T04:14:39.651Z,99623.25
2022-10-22T04:17:07.548Z,99621.03
2022-10-22T04:19:35.676Z,99628.16
2022-10-22T04:22:03.499Z,99632.66
2022-10-22T04:24:32.296Z,99629.53
2022-10-22T04:27:00.522Z,99618.03
2022-10-22T04:29:29.671Z,99601.56
2022-10-22T04:31:57.464Z,99588.19
2022-10-22T04:34:28.830Z,99594.88
2022-10-22T04:36:56.788Z,99584.72
2022-10-22T04:39:24.577Z,99580.53
2022-10-22T04:41:52.399Z,99601.56
2022-10-22T04:44:20.215Z,99596.56
2022-10-22T04:46:50.343Z,99595.06
2022-10-22T04:49:18.527Z,99615.13
2022-10-22T04:51:46.356Z,99597.63
2022-10-22T04:54:15.071Z,99590.09
2022-10-22T04:56:43.215Z,99584.16
2022-10-22T04:59:14.677Z,99589.97
2022-10-22T05:01:43.888Z,99586.59
2022-10-22T05:04:16.234Z,99599.31
2022-10-22T05:06:45.062Z,99604.97
2022-10-22T05:09:15.091Z,99602.38
2022-10-22T05:11:48.227Z,99605.56
2022-10-22T05:14:17.517Z,99595.88
2022-10-22T05:16:48.171Z,99594.09
2022-10-22T05:19:21.163Z,99602.31
2022-10-22T05:21:48.950Z,99615.47
2022-10-22T05:24:17.003Z,99622.44
2022-10-22T05:26:44.854Z,99617.28
2022-10-22T05:29:12.611Z,99608.75
2022-10-22T05:31:41.034Z,99606.38
2022-10-22T05:34:08.826Z,99610.16
2022-10-22T05:36:38.237Z,99611.44
2022-10-22T05:39:06.675Z,99609.91
2022-10-22T05:41:36.592Z,99610.06
2022-10-22T05:44:05.093Z,99608.72
2022-10-22T05:46:36.316Z,99605.69
2022-10-22T05:49:06.338Z,99613.44
2022-10-22T05:51:36.513Z,99619.44
2022-10-22T05:54:08.384Z,99614.59
2022-10-22T05:56:36.700Z,99616.25
2022-10-22T05:59:04.919Z,99620.97
2022-10-22T06:01:35.212Z,99642.91
2022-10-22T06:04:06.243Z,99632.94
2022-10-22T06:06:36.326Z,99637.06
2022-10-22T06:09:11.209Z,99633.69
2022-10-22T06:11:39.097Z,99639.56
2022-10-22T06:14:07.942Z,99633.72
2022-10-22T06:16:35.829Z,99622.75
2022-10-22T06:19:04.295Z,99623.59
2022-10-22T06:21:32.611Z,99608.34
2022-10-22T06:24:01.715Z,99620.41
2022-10-22T06:26:31.283Z,99624.09
2022-10-22T06:28:59.536Z,99631.47
2022-10-22T06:31:28.842Z,99643.75
2022-10-22T06:33:57.806Z,99652.94
2022-10-22T06:36:26.632Z,99655.16
2022-10-22T06:38:55.886Z,99659.59
2022-10-22T06:41:28.550Z,99648.38
2022-10-22T06:43:59.924Z,99669.56
2022-10-22T06:46:27.885Z,99658.75
2022-10-22T06:48:57.134Z,99659.75
2022-10-22T06:51:26.283Z,99656.75
2022-10-22T06:53:54.745Z,99667.38
2022-10-22T06:56:24.820Z,99668.69
2022-10-22T06:58:54.419Z,99669.09
2022-10-22T07:01:28.179Z,99670.41
2022-10-22T07:03:56.592Z,99658.22
2022-10-22T07:06:26.077Z,99655.75
2022-10-22T07:08:54.841Z,99643.34
2022-10-22T07:11:25.617Z,99640.88
2022-10-22T07:13:55.441Z,99649.16
2022-10-22T07:16:29.569Z,99662.38
2022-10-22T07:19:00.109Z,99662.44
2022-10-22T07:21:27.939Z,99656.13
2022-10-22T07:23:56.504Z,99649.97
2022-10-22T07:26:25.353Z,99658.75
2022-10-22T07:28:53.211Z,99633.84
2022-10-22T07:31:21.172Z,99657.91
2022-10-22T07:33:50.304Z,99659.94
2022-10-22T07:36:18.587Z,99666.97
2022-10-22T07:38:46.930Z,99665.41
2022-10-22T07:41:14.979Z,99663.50
2022-10-22T07:43:43.281Z,99667.88
2022-10-22T07:46:11.545Z,99691.34
2022-10-22T07:48:39.556Z,99693.69
2022-10-22T07:51:09.177Z,99682.84
2022-10-22T07:53:37.096Z,99692.81
2022-10-22T07:56:06.208Z,99681.47
2022-10-22T07:58:34.679Z,99681.66
2022-10-22T08:01:05.666Z,99683.34
2022-10-22T08:03:34.466Z,99674.47
2022-10-22T08:06:02.896Z,99670.72
2022-10-22T08:08:32.341Z,99655.13
2022-10-22T08:11:01.665Z,99653.78
2022-10-22T08:13:31.579Z,99670.91
2022-10-22T08:16:00.355Z,99668.69
2022-10-22T08:18:28.709Z,99658.00
2022-10-22T08:20:56.702Z,99670.69
2022-10-22T08:23:26.203Z,99677.59
2022-10-22T08:25:58.441Z,99677.72
2022-10-22T08:28:28.464Z,99678.72
2022-10-22T08:30:56.569Z,99677.00
2022-10-22T08:33:24.358Z,99672.84
2022-10-22T08:35:52.942Z,99671.97
2022-10-22T08:38:21.367Z,99660.28
2022-10-22T08:40:52.783Z,99661.22
2022-10-22T08:44:08.083Z,99666.31
2022-10-22T08:46:55.124Z,99682.41
2022-10-22T08:49:25.677Z,99670.13
2022-10-22T08:51:54.052Z,99656.81
2022-10-22T08:54:33.077Z,99657.03
2022-10-22T08:57:17.828Z,99643.09
2022-10-22T08:59:48.914Z,99650.91
2022-10-22T09:02:36.309Z,99652.69
2022-10-22T09:05:17.055Z,99660.31
2022-10-22T09:07:50.115Z,99662.13
2022-10-22T09:10:20.156Z,99676.56
2022-10-22T09:12:49.080Z,99678.44
2022-10-22T09:15:21.879Z,99687.13
2022-10-22T09:18:00.573Z,99695.72
2022-10-22T09:20:35.928Z,99708.56
2022-10-22T09:23:18.565Z,99699.53
2022-10-22T09:25:46.862Z,99695.50
2022-10-22T09:28:14.649Z,99702.34
2022-10-22T09:30:44.052Z,99698.25
2022-10-22T09:33:14.933Z,99707.50
2022-10-22T09:35:47.580Z,99703.13
2022-10-22T09:38:17.896Z,99701.41
2022-10-22T09:40:48.291Z,99690.38
2022-10-22T09:43:16.496Z,99706.25
2022-10-22T09:45:47.196Z,99721.19
2022-10-22T09:48:21.513Z,99724.41
2022-10-22T09:50:51.116Z,99714.31
2022-10-22T09:53:22.713Z,99715.16
2022-10-22T09:55:53.844Z,99726.06
2022-10-22T09:58:22.019Z,99727.75
2022-10-22T10:00:54.765Z,99719.41
2022-10-22T10:03:24.499Z,99703.28
2022-10-22T10:05:54.395Z,99715.16
2022-10-22T10:08:23.212Z,99721.00
2022-10-22T10:10:53.786Z,99727.75
2022-10-22T10:13:49.649Z,99725.28
2022-10-22T10:16:31.545Z,99721.09
2022-10-22T10:19:18.479Z,99720.25
2022-10-22T10:21:55.688Z,99699.22
2022-10-22T10:24:30.879Z,99704.31
2022-10-22T10:27:03.578Z,99705.09
2022-10-22T10:29:47.417Z,99705.88
2022-10-22T10:32:28.827Z,99699.06
2022-10-22T10:35:08.719Z,99702.41
2022-10-22T10:37:43.777Z,99702.34
2022-10-22T10:40:22.992Z,99707.38
2022-10-22T10:43:01.233Z,99714.91
2022-10-22T10:45:38.089Z,99717.41
2022-10-22T10:48:19.818Z,99710.59
2022-10-22T10:51:03.828Z,99724.94
2022-10-22T10:53:48.643Z,99713.19
2022-10-22T10:56:33.455Z,99725.72
2022-10-22T10:59:14.905Z,99713.97
2022-10-22T11:02:00.643Z,99715.59
2022-10-22T11:04:51.625Z,99713.88
2022-10-22T11:07:34.382Z,99673.41
2022-10-22T11:10:10.814Z,99691.97
2022-10-22T11:12:43.431Z,99690.28
2022-10-22T11:15:23.800Z,99695.34
2022-10-22T11:17:54.083Z,99695.31
2022-10-22T11:20:28.591Z,99691.91
2022-10-22T11:23:18.997Z,99676.72
2022-10-22T11:25:50.312Z,99694.44
2022-10-22T11:28:24.745Z,99699.44
2022-10-22T11:30:59.275Z,99699.28
2022-10-22T11:33:34.158Z,99705.25
2022-10-22T11:36:05.835Z,99708.69
2022-10-22T11:38:35.695Z,99710.44
2022-10-22T11:41:08.362Z,99711.28
2022-10-22T11:43:56.904Z,99719.69
2022-10-22T11:46:34.950Z,99695.25
2022-10-22T11:49:05.672Z,99705.41
2022-10-22T11:51:36.967Z,99700.41
2022-10-22T11:54:43.257Z,99703.09
2022-10-22T11:57:21.468Z,99694.66
2022-10-22T11:59:52.423Z,99719.78
2022-10-22T12:02:32.896Z,99718.84
2022-10-22T12:05:34.934Z,99721.31
2022-10-22T12:08:17.008Z,99715.47
2022-10-22T12:10:59.275Z,99710.44
2022-10-22T12:13:29.239Z,99707.97
2022-10-22T12:15:59.796Z,99717.13
2022-10-22T12:18:33.319Z,99721.31
2022-10-22T12:21:01.251Z,99708.69
2022-10-22T12:23:35.115Z,99703.53
2022-10-22T12:26:04.728Z,99705.88
2022-10-22T12:28:40.802Z,99693.94
2022-10-22T12:31:17.163Z,99693.81
2022-10-22T12:33:45.216Z,99717.38
2022-10-22T12:36:19.586Z,99701.44
2022-10-22T12:38:49.271Z,99705.56
2022-10-22T12:41:17.056Z,99699.69
2022-10-22T12:43:45.444Z,99700.50
2022-10-22T12:46:15.114Z,99697.88
2022-10-22T12:48:45.555Z,99702.06
2022-10-22T12:51:17.967Z,99697.81
2022-10-22T12:53:50.264Z,99692.75
2022-10-22T12:56:23.161Z,99692.81
2022-10-22T12:58:56.255Z,99695.34
2022-10-22T13:01:27.607Z,99686.09
2022-10-22T13:04:06.916Z,99692.13
2022-10-22T13:06:36.284Z,99687.13
2022-10-22T13:09:13.324Z,99688.94
2022-10-22T13:11:43.117Z,99694.00
2022-10-22T13:14:22.312Z,99698.22
2022-10-22T13:17:12.219Z,99693.22
2022-10-22T13:19:43.860Z,99683.16
2022-10-22T13:22:31.219Z,99685.66
2022-10-22T13:25:04.689Z,99671.31
2022-10-22T13:27:33.043Z,99687.34
2022-10-22T13:30:04.031Z,99693.22
2022-10-22T13:32:34.675Z,99686.41
2022-10-22T13:35:04.318Z,99698.28
2022-10-22T13:37:35.531Z,99694.09
2022-10-22T13:40:11.966Z,99701.63
2022-10-22T13:42:41.157Z,99698.25
2022-10-22T13:45:09.842Z,99701.59
2022-10-22T13:47:37.862Z,99704.94
2022-10-22T13:50:14.617Z,99699.78
2022-10-22T13:52:46.208Z,99704.81
2022-10-22T13:55:18.119Z,99697.94
2022-10-22T13:57:46.824Z,99701.28
2022-10-22T14:00:16.961Z,99699.56
2022-10-22T14:02:45.711Z,99707.97
2022-10-22T14:05:14.114Z,99697.94
2022-10-22T14:07:42.219Z,99701.28
2022-10-22T14:10:20.189Z,99704.53
2022-10-22T14:12:52.381Z,99690.16
2022-10-22T14:15:23.870Z,99681.50
2022-10-22T14:17:57.402Z,99687.22
2022-10-22T14:20:27.562Z,99686.34
2022-10-22T14:22:55.945Z,99670.50
2022-10-22T14:25:26.771Z,99670.50
2022-10-22T14:27:54.714Z,99683.84
2022-10-22T14:30:24.145Z,99690.50
2022-10-22T14:32:52.589Z,99690.47
2022-10-22T14:35:22.721Z,99685.44
2022-10-22T14:37:50.938Z,99665.38
2022-10-22T14:40:21.154Z,99666.19
2022-10-22T14:42:50.389Z,99679.63
2022-10-22T14:45:21.932Z,99677.13
2022-10-22T14:47:50.364Z,99674.66
2022-10-22T14:50:19.417Z,99669.63
2022-10-22T14:52:47.261Z,99677.28
2022-10-22T14:55:16.829Z,99679.00
2022-10-22T14:57:45.228Z,99682.38
2022-10-22T15:00:17.635Z,99679.81
2022-10-22T15:02:46.190Z,99672.25
2022-10-22T15:05:14.217Z,99673.06
2022-10-22T15:07:42.782Z,99671.25
2022-10-22T15:10:11.136Z,99658.50
2022-10-22T15:12:38.937Z,99672.88
2022-10-22T15:15:08.216Z,99664.38
2022-10-22T15:17:37.380Z,99685.34
2022-10-22T15:20:06.213Z,99696.16
2022-10-22T15:22:35.555Z,99701.97
2022-10-22T15:25:06.122Z,99701.06
2022-10-22T15:27:34.014Z,99695.06
2022-10-22T15:32:32.248Z,99717.63
2022-10-22T15:35:05.926Z,99718.47
2022-10-22T15:37:33.737Z,99710.84
2022-10-22T15:40:03.660Z,99717.59
2022-10-22T15:42:31.556Z,99711.78
2022-10-22T15:45:00.184Z,99719.31
2022-10-22T15:47:29.500Z,99721.81
2022-10-22T15:49:58.345Z,99713.38
2022-10-22T15:52:27.604Z,99726.84
2022-10-22T15:54:55.513Z,99730.16
2022-10-22T15:57:23.345Z,99728.38
2022-10-22T15:59:51.870Z,99731.56
2022-10-22T16:02:19.792Z,99741.69
2022-10-22T16:04:47.900Z,99740.78
2022-10-22T16:07:15.693Z,99756.66
2022-10-22T16:09:44.816Z,99755.81
2022-10-22T16:12:15.266Z,99768.34
2022-10-22T16:14:44.999Z,99765.72
2022-10-22T16:17:13.078Z,99776.56
2022-10-22T16:19:40.817Z,99772.41
2022-10-22T16:22:11.516Z,99779.94
2022-10-22T16:24:40.355Z,99779.06
2022-10-22T16:27:09.911Z,99779.03
2022-10-22T16:29:38.789Z,99779.78
2022-10-22T16:32:07.495Z,99793.19
2022-10-22T16:34:35.330Z,99796.53
2022-10-22T16:37:03.090Z,99786.50
2022-10-22T16:39:30.917Z,99792.28
2022-10-22T16:41:59.693Z,99799.69
2022-10-22T16:44:28.900Z,99802.94
2022-10-22T16:46:56.692Z,99804.59
2022-10-22T16:49:25.101Z,99809.66
2022-10-22T16:51:52.881Z,99818.78
2022-10-22T16:54:21.755Z,99810.34
2022-10-22T16:56:49.765Z,99813.78
2022-10-22T16:59:18.556Z,99815.47
2022-10-22T17:01:47.737Z,99812.84
2022-10-22T17:04:17.221Z,99824.56
2022-10-22T17:06:45.673Z,99817.00
2022-10-22T17:09:14.241Z,99822.72
2022-10-22T17:11:42.573Z,99824.25
2022-10-22T17:14:10.898Z,99823.38
2022-10-22T17:16:38.673Z,99832.53
2022-10-22T17:19:08.042Z,99833.38
2022-10-22T17:21:35.919Z,99831.69
2022-10-22T17:24:03.716Z,99845.06
2022-10-22T17:26:33.189Z,99843.41
2022-10-22T17:29:01.610Z,99837.56
2022-10-22T17:31:32.529Z,99838.44
2022-10-22T17:34:00.815Z,99841.75
2022-10-22T17:36:33.436Z,99847.63
2022-10-22T17:39:06.137Z,99843.41
2022-10-22T17:41:36.118Z,99851.91
2022-10-22T17:44:05.797Z,99861.13
2022-10-22T17:46:33.915Z,99860.22
2022-10-22T17:49:04.330Z,99859.47
2022-10-22T17:51:33.851Z,99862.75
2022-10-22T17:54:03.477Z,99854.28
2022-10-22T17:56:33.912Z,99858.31
2022-10-22T17:59:02.935Z,99858.22
2022-10-22T18:01:32.636Z,99849.78
2022-10-22T18:04:03.391Z,99851.31
2022-10-22T18:06:33.077Z,99854.59
2022-10-22T18:09:05.776Z,99847.81
2022-10-22T18:11:34.304Z,99860.25
2022-10-22T18:14:02.528Z,99866.00
2022-10-22T18:16:30.423Z,99856.38
2022-10-22T18:18:58.826Z,99871.50
2022-10-22T18:21:29.355Z,99882.09
2022-10-22T18:23:59.971Z,99883.69
2022-10-22T18:26:28.946Z,99881.81
2022-10-22T18:28:57.998Z,99886.03
2022-10-22T18:31:27.696Z,99892.75
2022-10-22T18:33:56.388Z,99888.72
2022-10-22T18:36:26.426Z,99879.66
2022-10-22T18:38:56.393Z,99873.16
2022-10-22T18:41:26.526Z,99874.00
2022-10-22T18:43:55.664Z,99875.56
2022-10-22T18:46:24.001Z,99871.41
2022-10-22T18:48:54.052Z,99869.44
2022-10-22T18:51:22.518Z,99889.03
2022-10-22T18:54:04.591Z,99884.97
2022-10-22T18:56:34.782Z,99895.06
2022-10-22T18:59:02.532Z,99882.50
2022-10-22T19:01:30.822Z,99883.22
2022-10-22T19:03:58.672Z,99894.09
2022-10-22T19:06:30.507Z,99877.91
2022-10-22T19:09:00.667Z,99884.66
2022-10-22T19:11:28.764Z,99898.06
2022-10-22T19:13:58.050Z,99910.59
2022-10-22T19:16:26.839Z,99909.47
2022-10-22T19:19:01.296Z,99916.16
2022-10-22T19:21:29.281Z,99911.16
2022-10-22T19:23:57.532Z,99911.41
2022-10-22T19:26:26.527Z,99903.22
2022-10-22T19:28:54.892Z,99897.47
2022-10-22T19:31:25.599Z,99908.34
2022-10-22T19:33:55.296Z,99929.28
2022-10-22T19:36:25.345Z,99931.69
2022-10-22T19:38:53.219Z,99921.53
2022-10-22T19:41:22.584Z,99924.81
2022-10-22T19:43:52.588Z,99933.03
2022-10-22T19:46:21.462Z,99939.66
2022-10-22T19:48:52.255Z,99941.28
2022-10-22T19:51:24.603Z,99943.81
2022-10-22T19:53:58.608Z,99954.88
2022-10-22T19:56:26.481Z,99948.16
2022-10-22T19:58:54.399Z,99957.63
2022-10-22T20:01:22.629Z,99956.88
2022-10-22T20:03:51.870Z,99965.25
2022-10-22T20:06:21.742Z,99961.00
2022-10-22T20:08:52.355Z,99967.91
2022-10-22T20:11:25.995Z,99971.38
2022-10-22T20:13:54.823Z,99973.00
2022-10-22T20:16:25.120Z,99980.50
2022-10-22T20:18:54.280Z,99975.59
2022-10-22T20:21:22.731Z,99960.47
2022-10-22T20:23:54.082Z,99962.41
2022-10-22T20:26:23.801Z,99976.53
2022-10-22T20:28:51.851Z,99974.69
2022-10-22T20:31:21.279Z,99973.00
2022-10-22T20:33:50.354Z,99984.81
2022-10-22T20:36:21.244Z,99974.81
2022-10-22T20:38:49.302Z,99984.09
2022-10-22T20:41:18.994Z,99982.38
2022-10-22T20:43:47.992Z,99977.28
2022-10-22T20:46:18.604Z,99983.78
2022-10-22T20:48:46.745Z,99986.72
2022-10-22T20:51:14.925Z,99995.81
2022-10-22T20:53:44.354Z,99988.03
2022-10-22T20:56:13.015Z,99986.28
2022-10-22T20:58:46.354Z,99973.47
2022-10-22T21:01:20.449Z,99966.63
2022-10-22T21:03:49.182Z,99984.28
2022-10-22T21:06:17.216Z,99985.00
2022-10-22T21:08:46.467Z,99984.94
2022-10-22T21:11:14.268Z,99994.16
2022-10-22T21:13:42.124Z,99992.25
2022-10-22T21:16:11.148Z,99999.81
2022-10-22T21:18:39.467Z,99997.25
2022-10-22T21:21:08.315Z,99993.75
2022-10-22T21:23:36.978Z,100001.06
2022-10-22T21:26:07.306Z,99998.16
2022-10-22T21:28:37.042Z,100002.94
2022-10-22T21:31:06.201Z,100006.13
2022-10-22T21:33:36.598Z,100015.25
2022-10-22T21:36:05.178Z,99987.34
2022-10-22T21:38:33.360Z,100000.09
2022-10-22T21:41:06.637Z,100016.41
2022-10-22T21:43:34.473Z,100028.44
2022-10-22T21:46:08.192Z,100005.09
2022-10-22T21:48:37.003Z,100012.38
2022-10-22T21:51:09.014Z,100019.19
2022-10-22T21:53:37.100Z,100013.94
2022-10-22T21:56:07.476Z,100023.28
2022-10-22T21:58:36.207Z,100027.53
2022-10-22T22:01:04.857Z,100030.91
2022-10-22T22:03:32.720Z,100032.41
2022-10-22T22:06:01.506Z,100025.59
2022-10-22T22:08:29.899Z,100030.41
2022-10-22T22:11:02.598Z,100036.31
2022-10-22T22:13:32.023Z,100030.69
2022-10-22T22:16:03.282Z,100023.19
2022-10-22T22:18:31.754Z,100027.66
2022-10-22T22:21:01.076Z,100030.91
2022-10-22T22:23:28.883Z,100041.88
2022-10-22T22:25:59.708Z,100041.94
2022-10-22T22:28:27.728Z,100035.00
2022-10-22T22:30:57.067Z,100049.28
2022-10-22T22:33:25.118Z,100046.72
2022-10-22T22:35:52.940Z,100041.38
2022-10-22T22:38:20.717Z,100048.03
2022-10-22T22:40:48.517Z,100055.44
2022-10-22T22:43:16.360Z,100057.00
2022-10-22T22:45:44.113Z,100050.97
2022-10-22T22:48:13.284Z,100023.66
2022-10-22T22:50:41.023Z,100063.47
2022-10-22T22:53:08.856Z,100062.66
2022-10-22T22:55:36.626Z,100065.16
2022-10-22T22:58:04.426Z,100064.31
2022-10-22T23:00:32.301Z,100070.06
2022-10-22T23:03:00.141Z,100069.69
2022-10-22T23:05:29.612Z,100061.44
2022-10-22T23:07:57.620Z,100066.09
2022-10-22T23:10:25.401Z,100067.50
2022-10-22T23:12:53.583Z,100059.06
2022-10-22T23:15:21.355Z,100058.88
2022-10-22T23:17:49.145Z,100058.16
2022-10-22T23:20:17.121Z,100050.66
2022-10-22T23:22:46.289Z,100054.00
2022-10-22T23:25:14.234Z,100047.41
2022-10-22T23:27:42.209Z,100048.69
2022-10-22T23:30:11.173Z,100050.72
2022-10-22T23:32:39.043Z,100052.19
2022-10-22T23:35:07.246Z,100052.06
2022-10-22T23:37:35.079Z,100057.06
2022-10-22T23:40:04.896Z,100056.47
2022-10-22T23:42:32.791Z,100054.06
2022-10-22T23:45:00.672Z,100060.16
2022-10-22T23:47:28.501Z,100065.44
2022-10-22T23:49:56.343Z,100056.34
2022-10-22T23:52:24.233Z,100058.03
2022-10-22T23:54:52.074Z,100059.56
2022-10-22T23:57:21.269Z,100074.28
2022-10-22T23:59:49.010Z,100077.91
